createdAt,value
2018-04-25T00:02:15.673Z,11.10
2018-04-25T00:04:43.945Z,10.80
2018-04-25T00:07:11.451Z,10.80
2018-04-25T00:09:38.971Z,10.70
2018-04-25T00:12:06.470Z,10.70
2018-04-25T00:14:34.004Z,10.70
2018-04-25T00:17:02.295Z,10.70
2018-04-25T00:19:29.815Z,10.70
2018-04-25T00:21:57.288Z,10.70
2018-04-25T00:24:25.618Z,10.70
2018-04-25T00:26:53.904Z,10.70
2018-04-25T00:29:21.424Z,10.80
2018-04-25T00:31:48.943Z,10.60
2018-04-25T00:34:17.233Z,10.60
2018-04-25T00:36:44.791Z,10.60
2018-04-25T00:39:13.049Z,10.50
2018-04-25T00:44:09.434Z,10.50
2018-04-25T00:46:36.953Z,10.50
2018-04-25T00:49:04.473Z,10.40
2018-04-25T00:51:31.955Z,10.40
2018-04-25T00:53:59.503Z,10.40
2018-04-25T00:56:27.855Z,10.40
2018-04-25T00:58:55.331Z,10.30
2018-04-25T01:01:22.814Z,10.30
2018-04-25T01:03:50.293Z,10.30
2018-04-25T01:06:18.572Z,10.30
2018-04-25T01:08:46.820Z,10.20
2018-04-25T01:11:14.335Z,10.20
2018-04-25T01:13:41.843Z,10.20
2018-04-25T01:16:09.340Z,10.20
2018-04-25T01:18:36.800Z,10.20
2018-04-25T01:21:04.314Z,10.20
2018-04-25T01:23:32.605Z,10.20
2018-04-25T01:26:06.409Z,10.30
2018-04-25T01:28:40.520Z,10.30
2018-04-25T01:34:05.608Z,10.20
2018-04-25T01:36:45.992Z,10.20
2018-04-25T01:39:17.060Z,10.30
2018-04-25T01:41:47.354Z,10.20
2018-04-25T01:44:21.504Z,10.10
2018-04-25T01:46:49.720Z,10.10
2018-04-25T01:49:23.941Z,10.10
2018-04-25T01:52:03.336Z,10.10
2018-04-25T01:54:42.726Z,10.10
2018-04-25T01:57:23.026Z,10.10
2018-04-25T02:00:02.301Z,10.00
2018-04-25T02:02:29.339Z,10.10
2018-04-25T02:04:56.880Z,10.00
2018-04-25T02:07:24.419Z,10.10
2018-04-25T02:09:51.943Z,10.10
2018-04-25T02:12:20.243Z,10.10
2018-04-25T02:14:47.684Z,10.10
2018-04-25T02:17:16.000Z,10.10
2018-04-25T02:19:43.511Z,10.00
2018-04-25T02:22:11.051Z,10.10
2018-04-25T02:24:38.532Z,10.10
2018-04-25T02:27:06.080Z,10.00
2018-04-25T02:29:34.364Z,10.00
2018-04-25T02:32:02.674Z,10.00
2018-04-25T02:34:30.188Z,9.90
2018-04-25T02:36:58.448Z,9.90
2018-04-25T02:39:25.911Z,9.80
2018-04-25T02:41:54.053Z,9.80
2018-04-25T02:44:21.536Z,9.80
2018-04-25T02:46:49.063Z,9.80
2018-04-25T02:49:16.532Z,9.70
2018-04-25T02:51:44.067Z,9.70
2018-04-25T02:54:12.359Z,9.80
2018-04-25T02:56:39.870Z,9.80
2018-04-25T02:59:08.129Z,9.70
2018-04-25T03:01:35.665Z,9.80
2018-04-25T03:04:03.179Z,9.80
2018-04-25T03:06:30.661Z,10.20
2018-04-25T03:08:58.180Z,10.40
2018-04-25T03:11:25.712Z,10.40
2018-04-25T03:13:53.980Z,10.50
2018-04-25T03:16:21.513Z,10.50
2018-04-25T03:18:49.056Z,10.80
2018-04-25T03:21:16.592Z,10.60
2018-04-25T03:23:44.135Z,10.40
2018-04-25T03:28:40.887Z,10.30
2018-04-25T03:31:08.372Z,10.40
2018-04-25T03:33:35.895Z,10.50
2018-04-25T03:36:03.413Z,10.50
2018-04-25T03:38:30.901Z,10.60
2018-04-25T03:40:58.443Z,10.60
2018-04-25T03:43:25.903Z,11.10
2018-04-25T03:45:53.452Z,11.10
2018-04-25T03:48:20.979Z,11.20
2018-04-25T03:50:48.480Z,11.20
2018-04-25T03:53:15.990Z,11.10
2018-04-25T03:55:43.473Z,11.00
2018-04-25T03:58:10.960Z,10.80
2018-04-25T04:00:38.415Z,10.80
2018-04-25T04:03:05.875Z,11.00
2018-04-25T04:05:33.343Z,10.70
2018-04-25T04:08:00.824Z,11.20
2018-04-25T04:10:29.063Z,12.10
2018-04-25T04:12:56.586Z,13.60
2018-04-25T04:15:24.056Z,11.80
2018-04-25T04:17:51.540Z,12.20
2018-04-25T04:20:19.516Z,12.40
2018-04-25T04:22:46.977Z,12.40
2018-04-25T04:25:15.250Z,12.50
2018-04-25T04:27:43.564Z,12.60
2018-04-25T04:30:11.068Z,12.50
2018-04-25T04:32:38.544Z,11.80
2018-04-25T04:35:06.055Z,12.30
2018-04-25T04:37:33.524Z,12.10
2018-04-25T04:40:00.990Z,12.40
2018-04-25T04:42:28.451Z,12.40
2018-04-25T04:44:55.911Z,12.30
2018-04-25T04:47:23.352Z,12.50
2018-04-25T04:49:50.786Z,12.70
2018-04-25T04:52:18.236Z,12.90
2018-04-25T04:54:45.680Z,13.00
2018-04-25T04:57:13.124Z,13.00
2018-04-25T04:59:40.621Z,13.00
2018-04-25T05:02:07.991Z,13.10
2018-04-25T05:04:35.434Z,13.00
2018-04-25T05:07:02.919Z,13.20
2018-04-25T05:09:30.350Z,13.20
2018-04-25T05:11:57.897Z,13.20
2018-04-25T05:14:26.555Z,13.10
2018-04-25T05:16:54.016Z,13.20
2018-04-25T05:19:21.478Z,13.70
2018-04-25T05:21:48.937Z,13.70
2018-04-25T05:24:16.433Z,13.60
2018-04-25T05:26:43.926Z,13.70
2018-04-25T05:29:12.156Z,14.00
2018-04-25T05:31:39.602Z,13.90
2018-04-25T05:34:07.044Z,13.90
2018-04-25T05:36:34.497Z,13.90
2018-04-25T05:39:01.922Z,14.10
2018-04-25T05:41:30.139Z,15.00
2018-04-25T05:43:57.582Z,14.90
2018-04-25T05:46:25.026Z,15.80
2018-04-25T05:48:52.455Z,16.40
2018-04-25T05:51:19.898Z,16.70
2018-04-25T05:53:47.325Z,17.60
2018-04-25T05:56:14.763Z,19.00
2018-04-25T05:58:42.195Z,19.30
2018-04-25T06:01:09.631Z,19.80
2018-04-25T06:03:37.833Z,20.50
2018-04-25T06:06:05.271Z,20.40
2018-04-25T06:08:33.475Z,21.20
2018-04-25T06:11:00.915Z,21.20
2018-04-25T06:13:28.357Z,20.50
2018-04-25T06:15:56.622Z,20.10
2018-04-25T06:18:24.002Z,18.80
2018-04-25T06:20:51.431Z,18.60
2018-04-25T06:23:19.647Z,19.80
2018-04-25T06:25:47.078Z,19.60
2018-04-25T06:28:15.322Z,21.70
2018-04-25T06:30:42.716Z,21.60
2018-04-25T06:33:10.150Z,20.40
2018-04-25T06:35:38.350Z,21.40
2018-04-25T06:38:05.783Z,21.30
2018-04-25T06:40:33.982Z,21.80
2018-04-25T06:43:01.424Z,21.80
2018-04-25T06:45:28.854Z,20.10
2018-04-25T06:47:56.298Z,20.10
2018-04-25T06:50:23.746Z,20.50
2018-04-25T06:52:51.190Z,20.50
2018-04-25T06:55:18.632Z,21.60
2018-04-25T06:57:46.065Z,20.00
2018-04-25T07:00:13.498Z,20.30
2018-04-25T07:02:41.703Z,19.50
2018-04-25T07:05:09.135Z,19.50
2018-04-25T07:07:37.344Z,20.20
2018-04-25T07:10:04.776Z,20.10
2018-04-25T07:12:32.226Z,20.40
2018-04-25T07:15:00.414Z,20.40
2018-04-25T07:17:27.879Z,20.40
2018-04-25T07:19:55.327Z,20.60
2018-04-25T07:22:22.754Z,20.20
2018-04-25T07:24:50.971Z,20.20
2018-04-25T07:27:18.426Z,20.20
2018-04-25T07:29:45.872Z,20.40
2018-04-25T07:32:13.290Z,20.20
2018-04-25T07:34:40.723Z,20.40
2018-04-25T07:37:08.151Z,20.40
2018-04-25T07:39:35.582Z,20.80
2018-04-25T07:42:03.113Z,20.30
2018-04-25T07:44:30.446Z,20.30
2018-04-25T07:46:57.894Z,20.30
2018-04-25T07:49:25.338Z,21.00
2018-04-25T07:51:52.776Z,21.00
2018-04-25T07:54:20.216Z,20.80
2018-04-25T07:56:47.640Z,20.70
2018-04-25T07:59:15.074Z,21.00
2018-04-25T08:01:42.513Z,20.90
2018-04-25T08:04:10.343Z,21.10
2018-04-25T08:06:38.542Z,21.70
2018-04-25T08:09:05.974Z,21.80
2018-04-25T08:11:33.408Z,21.20
2018-04-25T08:14:12.815Z,22.20
2018-04-25T08:16:51.977Z,22.50
2018-04-25T08:19:31.191Z,21.70
2018-04-25T08:21:58.627Z,22.20
2018-04-25T08:24:26.071Z,23.20
2018-04-25T08:26:53.505Z,23.20
2018-04-25T08:29:20.937Z,22.50
2018-04-25T08:31:48.366Z,23.00
2018-04-25T08:34:15.822Z,22.90
2018-04-25T08:36:43.238Z,22.60
2018-04-25T08:39:10.711Z,22.90
2018-04-25T08:41:38.115Z,22.10
2018-04-25T08:44:05.550Z,21.60
2018-04-25T08:46:32.991Z,21.90
2018-04-25T08:49:00.438Z,22.50
2018-04-25T08:51:27.872Z,21.90
2018-04-25T08:53:55.345Z,21.90
2018-04-25T08:56:22.778Z,21.90
2018-04-25T08:58:50.210Z,22.10
2018-04-25T09:01:18.787Z,22.10
2018-04-25T09:03:46.211Z,22.30
2018-04-25T09:06:13.670Z,22.30
2018-04-25T09:08:41.107Z,22.30
2018-04-25T09:11:08.560Z,22.70
2018-04-25T09:13:36.765Z,24.60
2018-04-25T09:16:04.211Z,24.60
2018-04-25T09:18:31.648Z,25.00
2018-04-25T09:20:59.082Z,25.30
2018-04-25T09:23:26.506Z,26.10
2018-04-25T09:25:54.350Z,24.20
2018-04-25T09:28:21.778Z,23.80
2018-04-25T09:30:49.229Z,23.70
2018-04-25T09:33:16.654Z,23.60
2018-04-25T09:35:44.871Z,23.70
2018-04-25T09:38:12.317Z,24.40
2018-04-25T09:40:40.143Z,23.20
2018-04-25T09:43:08.346Z,22.50
2018-04-25T09:45:35.790Z,22.40
2018-04-25T09:48:03.991Z,22.60
2018-04-25T09:50:31.426Z,22.50
2018-04-25T09:52:58.863Z,22.50
2018-04-25T09:55:26.293Z,22.50
2018-04-25T09:57:53.801Z,22.20
2018-04-25T10:00:21.178Z,23.00
2018-04-25T10:02:54.217Z,23.20
2018-04-25T10:05:22.418Z,23.60
2018-04-25T10:07:49.851Z,24.40
2018-04-25T10:10:18.045Z,24.40
2018-04-25T10:12:45.488Z,25.60
2018-04-25T10:15:13.697Z,25.20
2018-04-25T10:17:41.155Z,25.20
2018-04-25T10:20:08.602Z,24.60
2018-04-25T10:22:36.044Z,25.80
2018-04-25T10:25:03.470Z,25.40
2018-04-25T10:27:30.901Z,24.80
2018-04-25T10:29:58.330Z,24.70
2018-04-25T10:32:25.781Z,25.40
2018-04-25T10:34:53.232Z,25.30
2018-04-25T10:37:20.662Z,24.90
2018-04-25T10:39:48.867Z,25.20
2018-04-25T10:42:16.328Z,25.20
2018-04-25T10:44:43.763Z,25.50
2018-04-25T10:47:11.200Z,24.90
2018-04-25T10:49:39.398Z,23.60
2018-04-25T10:52:06.838Z,23.60
2018-04-25T10:54:35.047Z,24.00
2018-04-25T10:57:03.246Z,23.90
2018-04-25T10:59:30.686Z,23.90
2018-04-25T11:01:58.123Z,24.40
2018-04-25T11:04:25.747Z,26.10
2018-04-25T11:06:53.043Z,25.80
2018-04-25T11:09:20.511Z,25.20
2018-04-25T11:11:47.955Z,25.70
2018-04-25T11:14:15.411Z,26.30
2018-04-25T11:16:42.834Z,26.70
2018-04-25T11:19:10.287Z,26.40
2018-04-25T11:21:38.489Z,24.00
2018-04-25T11:24:05.935Z,23.90
2018-04-25T11:26:33.404Z,23.40
2018-04-25T11:29:01.617Z,22.90
2018-04-25T11:31:29.047Z,22.90
2018-04-25T11:33:56.492Z,22.40
2018-04-25T11:36:23.948Z,22.60
2018-04-25T11:38:51.390Z,22.20
2018-04-25T11:41:18.822Z,22.20
2018-04-25T11:43:47.035Z,21.60
2018-04-25T11:46:15.242Z,21.70
2018-04-25T11:48:42.688Z,22.40
2018-04-25T11:51:10.181Z,22.40
2018-04-25T11:53:37.621Z,21.70
2018-04-25T11:56:05.049Z,21.50
2018-04-25T11:58:32.498Z,21.60
2018-04-25T12:00:59.940Z,21.60
2018-04-25T12:03:27.476Z,21.80
2018-04-25T12:05:55.677Z,21.80
2018-04-25T12:08:23.128Z,21.70
2018-04-25T12:10:50.560Z,21.60
2018-04-25T12:13:18.075Z,21.50
2018-04-25T12:15:46.220Z,21.70
2018-04-25T12:18:13.695Z,21.80
2018-04-25T12:20:41.145Z,21.80
2018-04-25T12:23:08.584Z,21.80
2018-04-25T12:25:36.013Z,23.20
2018-04-25T12:28:04.211Z,22.50
2018-04-25T12:30:31.650Z,22.50
2018-04-25T12:32:59.090Z,22.10
2018-04-25T12:35:27.306Z,21.60
2018-04-25T12:37:54.734Z,21.60
2018-04-25T12:40:22.182Z,21.80
2018-04-25T12:42:50.395Z,21.60
2018-04-25T12:45:17.846Z,21.60
2018-04-25T12:47:45.306Z,21.40
2018-04-25T12:50:12.759Z,21.80
2018-04-25T12:52:40.189Z,22.80
2018-04-25T12:55:08.397Z,23.80
2018-04-25T12:57:35.843Z,24.30
2018-04-25T13:00:03.297Z,24.30
2018-04-25T13:02:30.723Z,24.30
2018-04-25T13:04:59.682Z,23.80
2018-04-25T13:07:27.115Z,23.80
2018-04-25T13:09:54.560Z,23.80
2018-04-25T13:12:22.004Z,23.60
2018-04-25T13:14:49.442Z,23.40
2018-04-25T13:17:16.887Z,23.40
2018-04-25T13:19:45.110Z,23.00
2018-04-25T13:22:12.558Z,22.50
2018-04-25T13:24:40.004Z,22.40
2018-04-25T13:27:07.439Z,22.10
2018-04-25T13:29:35.639Z,22.90
2018-04-25T13:32:03.078Z,22.90
2018-04-25T13:34:30.507Z,22.30
2018-04-25T13:36:57.944Z,22.40
2018-04-25T13:39:25.374Z,22.50
2018-04-25T13:41:52.824Z,22.10
2018-04-25T13:44:21.398Z,22.80
2018-04-25T13:46:48.903Z,23.10
2018-04-25T13:49:17.023Z,23.20
2018-04-25T13:51:44.457Z,23.20
2018-04-25T13:54:12.663Z,23.30
2018-04-25T13:56:40.103Z,23.30
2018-04-25T13:59:07.535Z,23.40
2018-04-25T14:01:35.757Z,23.30
2018-04-25T14:04:03.184Z,23.20
2018-04-25T14:06:30.695Z,23.40
2018-04-25T14:08:58.831Z,22.40
2018-04-25T14:11:26.270Z,22.30
2018-04-25T14:13:54.107Z,22.50
2018-04-25T14:16:21.544Z,22.40
2018-04-25T14:18:48.982Z,22.40
2018-04-25T14:21:16.424Z,22.20
2018-04-25T14:23:44.093Z,21.70
2018-04-25T14:26:11.531Z,21.70
2018-04-25T14:28:38.968Z,21.60
2018-04-25T14:31:07.184Z,21.50
2018-04-25T14:33:34.629Z,21.60
2018-04-25T14:36:03.989Z,21.60
2018-04-25T14:38:31.419Z,21.50
2018-04-25T14:40:58.851Z,21.90
2018-04-25T14:43:27.209Z,21.70
2018-04-25T14:45:54.667Z,21.50
2018-04-25T14:48:22.212Z,21.30
2018-04-25T14:50:49.618Z,21.30
2018-04-25T14:53:17.064Z,21.20
2018-04-25T14:55:44.503Z,20.60
2018-04-25T14:58:12.442Z,20.80
2018-04-25T15:00:40.690Z,20.90
2018-04-25T15:03:08.243Z,20.90
2018-04-25T15:05:35.691Z,21.00
2018-04-25T15:08:03.158Z,20.70
2018-04-25T15:10:30.586Z,20.70
2018-04-25T15:12:58.239Z,20.70
2018-04-25T15:15:26.456Z,21.00
2018-04-25T15:17:53.894Z,21.00
2018-04-25T15:20:21.335Z,20.90
2018-04-25T15:22:48.775Z,20.90
2018-04-25T15:25:16.216Z,21.00
2018-04-25T15:27:43.669Z,21.00
2018-04-25T15:30:11.094Z,20.80
2018-04-25T15:32:38.534Z,20.70
2018-04-25T15:35:05.975Z,20.60
2018-04-25T15:37:33.815Z,20.50
2018-04-25T15:40:01.251Z,20.50
2018-04-25T15:42:28.710Z,20.50
2018-04-25T15:44:56.140Z,20.50
2018-04-25T15:47:23.576Z,20.80
2018-04-25T15:49:51.018Z,20.60
2018-04-25T15:52:18.484Z,20.40
2018-04-25T15:54:45.931Z,20.50
2018-04-25T15:57:14.498Z,20.30
2018-04-25T15:59:41.936Z,20.30
2018-04-25T16:02:09.371Z,20.40
2018-04-25T16:04:37.578Z,20.30
2018-04-25T16:07:05.033Z,20.30
2018-04-25T16:09:32.455Z,19.90
2018-04-25T16:12:00.685Z,19.80
2018-04-25T16:14:28.131Z,19.70
2018-04-25T16:16:55.871Z,19.70
2018-04-25T16:19:23.328Z,19.80
2018-04-25T16:21:50.766Z,19.80
2018-04-25T16:24:18.997Z,19.70
2018-04-25T16:26:46.452Z,19.50
2018-04-25T16:29:13.920Z,19.30
2018-04-25T16:31:41.376Z,19.20
2018-04-25T16:34:08.859Z,19.20
2018-04-25T16:36:37.059Z,19.10
2018-04-25T16:39:05.279Z,19.10
2018-04-25T16:41:32.702Z,19.00
2018-04-25T16:44:00.159Z,18.90
2018-04-25T16:46:27.593Z,18.80
2018-04-25T16:48:55.026Z,18.90
2018-04-25T16:51:22.464Z,18.80
2018-04-25T16:53:50.018Z,18.70
2018-04-25T16:56:17.524Z,18.70
2018-04-25T16:58:44.947Z,18.60
2018-04-25T17:01:12.402Z,18.50
2018-04-25T17:03:39.829Z,18.40
2018-04-25T17:06:07.472Z,18.30
2018-04-25T17:08:34.987Z,18.20
2018-04-25T17:11:03.282Z,18.20
2018-04-25T17:13:31.515Z,18.10
2018-04-25T17:15:59.037Z,18.10
2018-04-25T17:18:26.479Z,18.20
2018-04-25T17:20:54.012Z,18.10
2018-04-25T17:23:21.472Z,18.00
2018-04-25T17:25:50.523Z,18.00
2018-04-25T17:30:46.863Z,17.80
2018-04-25T17:33:14.372Z,17.80
2018-04-25T17:35:42.668Z,17.60
2018-04-25T17:38:10.143Z,17.70
2018-04-25T17:40:37.641Z,17.60
2018-04-25T17:43:05.127Z,17.50
2018-04-25T17:45:32.663Z,17.50
2018-04-25T17:48:00.762Z,17.40
2018-04-25T17:50:28.271Z,17.30
2018-04-25T17:52:55.731Z,17.30
2018-04-25T17:55:23.264Z,17.20
2018-04-25T17:57:50.807Z,17.00
2018-04-25T18:00:18.338Z,17.00
2018-04-25T18:02:45.863Z,17.00
2018-04-25T18:05:13.351Z,16.80
2018-04-25T18:07:41.611Z,16.70
2018-04-25T18:10:09.130Z,16.70
2018-04-25T18:12:36.609Z,16.70
2018-04-25T18:15:04.122Z,16.70
2018-04-25T18:17:31.622Z,16.60
2018-04-25T18:19:59.079Z,16.50
2018-04-25T18:22:26.607Z,16.50
2018-04-25T18:24:54.471Z,16.40
2018-04-25T18:27:21.997Z,16.50
2018-04-25T18:29:49.483Z,16.40
2018-04-25T18:32:16.995Z,16.40
2018-04-25T18:34:45.250Z,16.20
2018-04-25T18:37:12.729Z,16.20
2018-04-25T18:39:40.244Z,16.20
2018-04-25T18:42:07.760Z,16.20
2018-04-25T18:44:36.024Z,16.10
2018-04-25T18:47:04.286Z,16.00
2018-04-25T18:49:31.794Z,16.00
2018-04-25T18:52:00.051Z,15.90
2018-04-25T18:54:27.565Z,15.90
2018-04-25T18:56:55.085Z,15.90
2018-04-25T18:59:22.617Z,15.80
2018-04-25T19:01:50.116Z,15.70
2018-04-25T19:04:18.033Z,15.60
2018-04-25T19:06:46.349Z,15.50
2018-04-25T19:09:13.868Z,15.40
2018-04-25T19:11:42.133Z,15.40
2018-04-25T19:14:09.599Z,15.40
2018-04-25T19:16:37.894Z,15.30
2018-04-25T19:19:05.751Z,15.20
2018-04-25T19:21:33.271Z,15.20
2018-04-25T19:24:00.747Z,15.20
2018-04-25T19:26:28.239Z,15.10
2018-04-25T19:28:55.692Z,15.00
2018-04-25T19:31:23.139Z,15.10
2018-04-25T19:33:51.644Z,15.10
2018-04-25T19:36:19.074Z,15.10
2018-04-25T19:38:46.506Z,15.10
2018-04-25T19:41:14.006Z,15.10
2018-04-25T19:43:42.260Z,15.00
2018-04-25T19:46:10.474Z,15.00
2018-04-25T19:48:37.917Z,15.00
2018-04-25T19:51:05.396Z,15.10
2018-04-25T19:53:32.829Z,15.20
2018-04-25T19:56:00.254Z,15.20
2018-04-25T19:58:28.442Z,15.20
2018-04-25T20:00:55.869Z,15.10
2018-04-25T20:03:24.075Z,15.20
2018-04-25T20:05:51.498Z,15.10
2018-04-25T20:08:18.947Z,15.20
2018-04-25T20:10:46.371Z,15.20
2018-04-25T20:13:13.810Z,15.20
2018-04-25T20:15:41.630Z,15.20
2018-04-25T20:18:09.061Z,15.30
2018-04-25T20:20:36.490Z,15.30
2018-04-25T20:23:03.939Z,15.30
2018-04-25T20:25:31.359Z,15.40
2018-04-25T20:27:58.791Z,15.40
2018-04-25T20:30:26.217Z,15.40
2018-04-25T20:32:53.655Z,15.40
2018-04-25T20:35:21.077Z,15.40
2018-04-25T20:37:49.275Z,15.30
2018-04-25T20:40:16.707Z,15.30
2018-04-25T20:42:44.146Z,15.30
2018-04-25T20:45:11.601Z,15.30
2018-04-25T20:47:39.027Z,15.30
2018-04-25T20:50:06.475Z,15.30
2018-04-25T20:52:33.895Z,15.20
2018-04-25T20:55:02.099Z,15.10
2018-04-25T20:57:29.527Z,15.00
2018-04-25T20:59:57.732Z,14.80
2018-04-25T21:02:25.256Z,14.80
2018-04-25T21:04:52.602Z,14.70
2018-04-25T21:07:20.804Z,14.60
2018-04-25T21:09:48.301Z,14.60
2018-04-25T21:12:15.740Z,14.30
2018-04-25T21:14:43.163Z,14.30
2018-04-25T21:17:11.365Z,14.10
2018-04-25T21:19:38.812Z,14.10
2018-04-25T21:22:06.239Z,14.10
2018-04-25T21:24:34.455Z,13.90
2018-04-25T21:27:01.905Z,13.90
2018-04-25T21:29:29.336Z,13.80
2018-04-25T21:31:56.768Z,13.70
2018-04-25T21:34:24.210Z,13.70
2018-04-25T21:36:51.645Z,13.60
2018-04-25T21:39:19.083Z,13.60
2018-04-25T21:41:46.532Z,13.60
2018-04-25T21:44:13.954Z,13.60
2018-04-25T21:46:42.167Z,13.70
2018-04-25T21:49:09.595Z,13.70
2018-04-25T21:51:37.796Z,13.70
2018-04-25T21:54:05.243Z,13.70
2018-04-25T21:56:32.671Z,13.70
2018-04-25T21:59:00.870Z,13.50
2018-04-25T22:01:28.311Z,13.60
2018-04-25T22:03:56.517Z,13.40
2018-04-25T22:06:23.956Z,13.40
2018-04-25T22:08:51.383Z,13.40
2018-04-25T22:11:18.810Z,13.40
2018-04-25T22:13:46.234Z,13.40
2018-04-25T22:16:13.672Z,13.30
2018-04-25T22:18:41.102Z,13.30
2018-04-25T22:21:08.531Z,13.40
2018-04-25T22:23:35.958Z,13.50
2018-04-25T22:26:03.404Z,13.50
2018-04-25T22:28:30.822Z,13.40
2018-04-25T22:30:58.253Z,13.50
2018-04-25T22:33:25.682Z,13.30
2018-04-25T22:35:53.137Z,13.30
2018-04-25T22:38:20.555Z,13.20
2018-04-25T22:40:48.769Z,12.80
2018-04-25T22:43:16.191Z,12.80
2018-04-25T22:45:44.387Z,12.60
2018-04-25T22:48:11.828Z,12.60
2018-04-25T22:50:40.021Z,12.30
2018-04-25T22:53:07.451Z,12.20
2018-04-25T22:55:35.651Z,12.20
2018-04-25T22:58:03.075Z,12.10
2018-04-25T23:00:31.331Z,12.00
2018-04-25T23:02:58.770Z,12.00
2018-04-25T23:05:26.206Z,12.00
2018-04-25T23:07:53.656Z,12.00
2018-04-25T23:10:21.076Z,11.90
2018-04-25T23:12:49.279Z,11.90
2018-04-25T23:15:16.702Z,11.90
2018-04-25T23:17:44.914Z,11.90
2018-04-25T23:20:12.346Z,11.90
2018-04-25T23:22:40.545Z,12.00
2018-04-25T23:25:07.964Z,11.90
2018-04-25T23:27:36.173Z,11.90
2018-04-25T23:30:03.603Z,11.80
2018-04-25T23:32:31.032Z,11.80
2018-04-25T23:34:58.462Z,11.80
2018-04-25T23:37:25.897Z,11.70
2018-04-25T23:39:53.339Z,11.70
2018-04-25T23:42:20.807Z,11.70
2018-04-25T23:44:48.226Z,11.70
2018-04-25T23:47:16.432Z,11.70
2018-04-25T23:49:43.850Z,11.70
2018-04-25T23:52:12.059Z,11.70
2018-04-25T23:54:39.486Z,11.60
2018-04-25T23:57:07.699Z,11.70
2018-04-25T23:59:35.131Z,11.70
